Terminal Aerodrome Forecast
Issued by NWS

Home | Current Version | Previous Version | Graphics & Text | Print | Product List | Glossary On
Versions: 1 2 3 4 5 6 7 8 9 10 11 12 13 14 15 16 17 18 19 20 21 22
823
FTUS43 KABR 240539
TAFATY
TAF
KATY 240539Z 2406/2506 13011KT P6SM FEW007 SCT013
     FM241500 15018G28KT P6SM SCT030
     FM242100 18011KT P6SM SHRA VCTS BKN060CB
     FM250100 19010KT P6SM BKN150=

USA.gov is the U.S. government's official web portal to all federal, state and local government web resources and services.